sensor_id;sensor_type;location;lat;lon;timestamp;temperature;humidity
70246;SHT30;57637;49.272;8.590;2023-01-23T00:01:40;0.91;92.87
70246;SHT30;57637;49.272;8.590;2023-01-23T00:04:06;0.92;92.83
70246;SHT30;57637;49.272;8.590;2023-01-23T00:06:32;0.85;92.79
70246;SHT30;57637;49.272;8.590;2023-01-23T00:08:57;0.87;92.87
70246;SHT30;57637;49.272;8.590;2023-01-23T00:11:27;0.88;92.90
70246;SHT30;57637;49.272;8.590;2023-01-23T00:13:54;0.89;92.90
70246;SHT30;57637;49.272;8.590;2023-01-23T00:16:21;0.87;92.88
70246;SHT30;57637;49.272;8.590;2023-01-23T00:18:48;0.88;92.91
70246;SHT30;57637;49.272;8.590;2023-01-23T00:21:16;0.88;92.91
70246;SHT30;57637;49.272;8.590;2023-01-23T00:23:43;0.87;92.89
70246;SHT30;57637;49.272;8.590;2023-01-23T00:26:12;0.85;92.93
70246;SHT30;57637;49.272;8.590;2023-01-23T00:28:40;0.89;92.95
70246;SHT30;57637;49.272;8.590;2023-01-23T00:31:11;0.91;92.99
70246;SHT30;57637;49.272;8.590;2023-01-23T00:33:39;0.92;92.99
70246;SHT30;57637;49.272;8.590;2023-01-23T00:36:06;0.94;93.01
70246;SHT30;57637;49.272;8.590;2023-01-23T00:38:32;0.92;92.96
70246;SHT30;57637;49.272;8.590;2023-01-23T00:40:57;0.85;92.98
70246;SHT30;57637;49.272;8.590;2023-01-23T00:43:23;0.88;93.02
70246;SHT30;57637;49.272;8.590;2023-01-23T00:45:48;0.87;93.03
70246;SHT30;57637;49.272;8.590;2023-01-23T00:48:14;0.85;93.01
70246;SHT30;57637;49.272;8.590;2023-01-23T00:50:40;0.83;93.00
70246;SHT30;57637;49.272;8.590;2023-01-23T00:53:05;0.78;93.03
70246;SHT30;57637;49.272;8.590;2023-01-23T00:55:31;0.77;93.07
70246;SHT30;57637;49.272;8.590;2023-01-23T00:57:56;0.71;93.12
70246;SHT30;57637;49.272;8.590;2023-01-23T01:00:22;0.73;93.17
70246;SHT30;57637;49.272;8.590;2023-01-23T01:02:47;0.71;93.25
70246;SHT30;57637;49.272;8.590;2023-01-23T01:05:13;0.74;93.26
70246;SHT30;57637;49.272;8.590;2023-01-23T01:07:39;0.77;93.30
70246;SHT30;57637;49.272;8.590;2023-01-23T01:10:05;0.74;93.29
70246;SHT30;57637;49.272;8.590;2023-01-23T01:12:30;0.77;93.35
70246;SHT30;57637;49.272;8.590;2023-01-23T01:14:56;0.78;93.34
70246;SHT30;57637;49.272;8.590;2023-01-23T01:17:22;0.78;93.35
70246;SHT30;57637;49.272;8.590;2023-01-23T01:19:47;0.77;93.36
70246;SHT30;57637;49.272;8.590;2023-01-23T01:22:12;0.74;93.41
70246;SHT30;57637;49.272;8.590;2023-01-23T01:24:40;0.75;93.38
70246;SHT30;57637;49.272;8.590;2023-01-23T01:27:06;0.75;93.40
70246;SHT30;57637;49.272;8.590;2023-01-23T01:29:31;0.77;93.41
70246;SHT30;57637;49.272;8.590;2023-01-23T01:31:58;0.73;93.37
70246;SHT30;57637;49.272;8.590;2023-01-23T01:34:23;0.71;93.42
70246;SHT30;57637;49.272;8.590;2023-01-23T01:36:48;0.64;93.38
70246;SHT30;57637;49.272;8.590;2023-01-23T01:39:15;0.60;93.43
70246;SHT30;57637;49.272;8.590;2023-01-23T01:41:41;0.50;93.47
70246;SHT30;57637;49.272;8.590;2023-01-23T01:44:08;0.50;93.48
70246;SHT30;57637;49.272;8.590;2023-01-23T01:46:39;0.49;93.54
70246;SHT30;57637;49.272;8.590;2023-01-23T01:49:08;0.43;93.56
70246;SHT30;57637;49.272;8.590;2023-01-23T01:51:42;0.44;93.57
70246;SHT30;57637;49.272;8.590;2023-01-23T02:02:28;0.30;93.65
70246;SHT30;57637;49.272;8.590;2023-01-23T02:04:58;0.29;93.77
70246;SHT30;57637;49.272;8.590;2023-01-23T02:07:30;0.26;93.80
70246;SHT30;57637;49.272;8.590;2023-01-23T02:10:03;0.32;93.84
70246;SHT30;57637;49.272;8.590;2023-01-23T02:12:30;0.36;93.91
70246;SHT30;57637;49.272;8.590;2023-01-23T02:14:58;0.36;93.91
70246;SHT30;57637;49.272;8.590;2023-01-23T02:17:24;0.34;93.84
70246;SHT30;57637;49.272;8.590;2023-01-23T02:20:32;0.36;93.87
70246;SHT30;57637;49.272;8.590;2023-01-23T02:26:00;0.40;93.89
70246;SHT30;57637;49.272;8.590;2023-01-23T02:31:07;0.47;93.94
70246;SHT30;57637;49.272;8.590;2023-01-23T02:35:59;0.49;93.83
70246;SHT30;57637;49.272;8.590;2023-01-23T02:38:28;0.49;93.85
70246;SHT30;57637;49.272;8.590;2023-01-23T02:40:56;0.49;93.85
70246;SHT30;57637;49.272;8.590;2023-01-23T02:43:26;0.52;93.82
70246;SHT30;57637;49.272;8.590;2023-01-23T02:46:05;0.52;93.73
70246;SHT30;57637;49.272;8.590;2023-01-23T02:48:33;0.53;93.71
70246;SHT30;57637;49.272;8.590;2023-01-23T02:51:00;0.53;93.69
70246;SHT30;57637;49.272;8.590;2023-01-23T02:53:25;0.54;93.62
70246;SHT30;57637;49.272;8.590;2023-01-23T02:55:51;0.56;93.52
70246;SHT30;57637;49.272;8.590;2023-01-23T02:58:17;0.64;93.45
70246;SHT30;57637;49.272;8.590;2023-01-23T03:01:01;0.58;93.26
70246;SHT30;57637;49.272;8.590;2023-01-23T03:03:27;0.61;93.19
70246;SHT30;57637;49.272;8.590;2023-01-23T03:05:53;0.67;93.07
70246;SHT30;57637;49.272;8.590;2023-01-23T03:08:19;0.67;92.89
70246;SHT30;57637;49.272;8.590;2023-01-23T03:10:45;0.65;92.83
70246;SHT30;57637;49.272;8.590;2023-01-23T03:13:10;0.71;92.86
70246;SHT30;57637;49.272;8.590;2023-01-23T03:15:36;0.68;92.81
70246;SHT30;57637;49.272;8.590;2023-01-23T03:18:06;0.71;92.76
70246;SHT30;57637;49.272;8.590;2023-01-23T03:20:39;0.71;92.71
70246;SHT30;57637;49.272;8.590;2023-01-23T03:23:06;0.71;92.64
70246;SHT30;57637;49.272;8.590;2023-01-23T03:25:31;0.75;92.61
70246;SHT30;57637;49.272;8.590;2023-01-23T03:27:57;0.74;92.57
70246;SHT30;57637;49.272;8.590;2023-01-23T03:30:22;0.73;92.52
70246;SHT30;57637;49.272;8.590;2023-01-23T03:32:49;0.65;92.48
70246;SHT30;57637;49.272;8.590;2023-01-23T03:35:16;0.64;92.49
70246;SHT30;57637;49.272;8.590;2023-01-23T03:37:44;0.64;92.54
70246;SHT30;57637;49.272;8.590;2023-01-23T03:40:17;0.64;92.53
70246;SHT30;57637;49.272;8.590;2023-01-23T03:43:02;0.64;92.53
70246;SHT30;57637;49.272;8.590;2023-01-23T03:45:29;0.65;92.53
70246;SHT30;57637;49.272;8.590;2023-01-23T03:47:55;0.67;92.53
70246;SHT30;57637;49.272;8.590;2023-01-23T03:50:20;0.65;92.56
70246;SHT30;57637;49.272;8.590;2023-01-23T03:52:46;0.65;92.48
70246;SHT30;57637;49.272;8.590;2023-01-23T03:55:11;0.64;92.50
70246;SHT30;57637;49.272;8.590;2023-01-23T03:57:36;0.65;92.51
70246;SHT30;57637;49.272;8.590;2023-01-23T04:00:02;0.63;92.43
70246;SHT30;57637;49.272;8.590;2023-01-23T04:02:28;0.60;92.39
70246;SHT30;57637;49.272;8.590;2023-01-23T04:04:54;0.64;92.32
70246;SHT30;57637;49.272;8.590;2023-01-23T04:07:19;0.65;92.31
70246;SHT30;57637;49.272;8.590;2023-01-23T04:09:44;0.67;92.26
70246;SHT30;57637;49.272;8.590;2023-01-23T04:12:10;0.70;92.21
70246;SHT30;57637;49.272;8.590;2023-01-23T04:14:35;0.71;92.23
70246;SHT30;57637;49.272;8.590;2023-01-23T04:17:04;0.71;92.16
70246;SHT30;57637;49.272;8.590;2023-01-23T04:19:30;0.74;92.15
70246;SHT30;57637;49.272;8.590;2023-01-23T04:21:56;0.75;92.14
70246;SHT30;57637;49.272;8.590;2023-01-23T04:24:22;0.78;92.12
70246;SHT30;57637;49.272;8.590;2023-01-23T04:26:47;0.81;92.16
70246;SHT30;57637;49.272;8.590;2023-01-23T04:29:12;0.84;92.16
70246;SHT30;57637;49.272;8.590;2023-01-23T04:31:38;0.81;92.12
70246;SHT30;57637;49.272;8.590;2023-01-23T04:34:04;0.84;91.98
70246;SHT30;57637;49.272;8.590;2023-01-23T04:36:29;0.85;92.03
70246;SHT30;57637;49.272;8.590;2023-01-23T04:38:54;0.91;92.02
70246;SHT30;57637;49.272;8.590;2023-01-23T04:41:24;0.92;92.01
70246;SHT30;57637;49.272;8.590;2023-01-23T04:43:51;0.94;91.94
70246;SHT30;57637;49.272;8.590;2023-01-23T04:46:16;1.04;91.35
70246;SHT30;57637;49.272;8.590;2023-01-23T04:48:42;1.05;91.21
70246;SHT30;57637;49.272;8.590;2023-01-23T04:51:07;1.06;91.32
70246;SHT30;57637;49.272;8.590;2023-01-23T04:53:33;1.06;91.38
70246;SHT30;57637;49.272;8.590;2023-01-23T04:55:58;1.09;90.99
70246;SHT30;57637;49.272;8.590;2023-01-23T04:58:24;1.12;91.17
70246;SHT30;57637;49.272;8.590;2023-01-23T05:00:50;1.12;91.26
70246;SHT30;57637;49.272;8.590;2023-01-23T05:03:15;1.18;90.44
70246;SHT30;57637;49.272;8.590;2023-01-23T05:05:41;1.26;90.29
70246;SHT30;57637;49.272;8.590;2023-01-23T05:08:08;1.28;90.59
70246;SHT30;57637;49.272;8.590;2023-01-23T05:10:34;1.34;90.61
70246;SHT30;57637;49.272;8.590;2023-01-23T05:13:00;1.38;90.26
70246;SHT30;57637;49.272;8.590;2023-01-23T05:15:26;1.39;89.93
70246;SHT30;57637;49.272;8.590;2023-01-23T05:17:51;1.34;89.68
70246;SHT30;57637;49.272;8.590;2023-01-23T05:20:16;1.39;90.00
70246;SHT30;57637;49.272;8.590;2023-01-23T05:22:42;1.40;89.49
70246;SHT30;57637;49.272;8.590;2023-01-23T05:25:16;1.42;89.40
70246;SHT30;57637;49.272;8.590;2023-01-23T05:27:46;1.39;88.91
70246;SHT30;57637;49.272;8.590;2023-01-23T05:30:11;1.43;88.72
70246;SHT30;57637;49.272;8.590;2023-01-23T05:32:37;1.40;88.79
70246;SHT30;57637;49.272;8.590;2023-01-23T05:35:06;1.46;88.38
70246;SHT30;57637;49.272;8.590;2023-01-23T05:37:31;1.45;88.31
70246;SHT30;57637;49.272;8.590;2023-01-23T05:39:57;1.46;88.59
70246;SHT30;57637;49.272;8.590;2023-01-23T05:42:22;1.45;88.41
70246;SHT30;57637;49.272;8.590;2023-01-23T05:44:48;1.45;88.46
70246;SHT30;57637;49.272;8.590;2023-01-23T05:47:13;1.46;88.60
70246;SHT30;57637;49.272;8.590;2023-01-23T05:49:38;1.45;88.46
70246;SHT30;57637;49.272;8.590;2023-01-23T05:52:04;1.48;87.61
70246;SHT30;57637;49.272;8.590;2023-01-23T05:54:30;1.58;85.87
70246;SHT30;57637;49.272;8.590;2023-01-23T05:56:55;1.70;83.98
70246;SHT30;57637;49.272;8.590;2023-01-23T05:59:20;1.64;85.03
70246;SHT30;57637;49.272;8.590;2023-01-23T06:01:46;1.59;85.70
70246;SHT30;57637;49.272;8.590;2023-01-23T06:04:11;1.55;86.44
70246;SHT30;57637;49.272;8.590;2023-01-23T06:06:40;1.45;87.19
70246;SHT30;57637;49.272;8.590;2023-01-23T06:09:06;1.36;88.20
70246;SHT30;57637;49.272;8.590;2023-01-23T06:11:31;1.25;88.49
70246;SHT30;57637;49.272;8.590;2023-01-23T06:13:57;1.14;88.89
70246;SHT30;57637;49.272;8.590;2023-01-23T06:16:22;1.09;89.17
70246;SHT30;57637;49.272;8.590;2023-01-23T06:18:47;1.08;89.46
70246;SHT30;57637;49.272;8.590;2023-01-23T06:21:13;0.97;89.57
70246;SHT30;57637;49.272;8.590;2023-01-23T06:23:39;0.89;89.99
70246;SHT30;57637;49.272;8.590;2023-01-23T06:26:04;0.78;90.11
70246;SHT30;57637;49.272;8.590;2023-01-23T06:28:30;0.77;90.36
70246;SHT30;57637;49.272;8.590;2023-01-23T06:30:58;0.77;90.13
70246;SHT30;57637;49.272;8.590;2023-01-23T06:33:25;0.74;90.01
70246;SHT30;57637;49.272;8.590;2023-01-23T06:35:58;0.71;90.22
70246;SHT30;57637;49.272;8.590;2023-01-23T06:38:25;0.71;90.36
70246;SHT30;57637;49.272;8.590;2023-01-23T06:40:50;0.65;90.34
70246;SHT30;57637;49.272;8.590;2023-01-23T06:43:16;0.61;90.46
70246;SHT30;57637;49.272;8.590;2023-01-23T06:45:45;0.56;90.59
70246;SHT30;57637;49.272;8.590;2023-01-23T06:48:10;0.50;90.69
70246;SHT30;57637;49.272;8.590;2023-01-23T06:50:39;0.50;90.79
70246;SHT30;57637;49.272;8.590;2023-01-23T06:53:05;0.42;90.82
70246;SHT30;57637;49.272;8.590;2023-01-23T06:55:31;0.40;91.04
70246;SHT30;57637;49.272;8.590;2023-01-23T06:57:58;0.46;91.11
70246;SHT30;57637;49.272;8.590;2023-01-23T07:00:24;0.64;90.18
70246;SHT30;57637;49.272;8.590;2023-01-23T07:02:49;0.61;90.09
70246;SHT30;57637;49.272;8.590;2023-01-23T07:05:17;0.67;89.81
70246;SHT30;57637;49.272;8.590;2023-01-23T07:07:43;0.65;89.76
70246;SHT30;57637;49.272;8.590;2023-01-23T07:10:08;0.65;89.84
70246;SHT30;57637;49.272;8.590;2023-01-23T07:12:34;0.61;90.12
70246;SHT30;57637;49.272;8.590;2023-01-23T07:14:59;0.58;90.33
70246;SHT30;57637;49.272;8.590;2023-01-23T07:17:25;0.56;90.57
70246;SHT30;57637;49.272;8.590;2023-01-23T07:19:50;0.56;90.76
70246;SHT30;57637;49.272;8.590;2023-01-23T07:22:19;0.60;90.74
70246;SHT30;57637;49.272;8.590;2023-01-23T07:24:45;0.64;90.77
70246;SHT30;57637;49.272;8.590;2023-01-23T07:27:12;0.67;90.76
70246;SHT30;57637;49.272;8.590;2023-01-23T07:29:38;0.71;90.78
70246;SHT30;57637;49.272;8.590;2023-01-23T07:32:03;0.71;90.82
70246;SHT30;57637;49.272;8.590;2023-01-23T07:34:29;0.73;90.97
70246;SHT30;57637;49.272;8.590;2023-01-23T07:36:54;0.70;91.06
70246;SHT30;57637;49.272;8.590;2023-01-23T07:39:20;0.71;91.20
70246;SHT30;57637;49.272;8.590;2023-01-23T07:41:45;0.73;91.20
70246;SHT30;57637;49.272;8.590;2023-01-23T07:44:19;0.77;91.18
70246;SHT30;57637;49.272;8.590;2023-01-23T07:46:45;0.78;91.16
70246;SHT30;57637;49.272;8.590;2023-01-23T07:49:13;0.85;91.11
70246;SHT30;57637;49.272;8.590;2023-01-23T07:51:39;0.88;90.99
70246;SHT30;57637;49.272;8.590;2023-01-23T07:54:04;0.95;90.86
70246;SHT30;57637;49.272;8.590;2023-01-23T07:56:29;1.02;90.78
70246;SHT30;57637;49.272;8.590;2023-01-23T07:58:56;1.04;90.55
70246;SHT30;57637;49.272;8.590;2023-01-23T08:01:22;1.12;90.54
70246;SHT30;57637;49.272;8.590;2023-01-23T08:03:47;1.15;90.29
70246;SHT30;57637;49.272;8.590;2023-01-23T08:06:12;1.19;90.03
70246;SHT30;57637;49.272;8.590;2023-01-23T08:08:38;1.28;89.75
70246;SHT30;57637;49.272;8.590;2023-01-23T08:11:07;1.29;89.68
70246;SHT30;57637;49.272;8.590;2023-01-23T08:13:36;1.38;89.22
70246;SHT30;57637;49.272;8.590;2023-01-23T08:16:02;1.42;88.89
70246;SHT30;57637;49.272;8.590;2023-01-23T08:18:29;1.48;88.79
70246;SHT30;57637;49.272;8.590;2023-01-23T08:20:55;1.58;88.45
70246;SHT30;57637;49.272;8.590;2023-01-23T08:23:25;1.63;88.33
70246;SHT30;57637;49.272;8.590;2023-01-23T08:25:53;1.64;87.87
70246;SHT30;57637;49.272;8.590;2023-01-23T08:28:19;1.73;87.87
70246;SHT30;57637;49.272;8.590;2023-01-23T08:30:45;1.86;87.34
70246;SHT30;57637;49.272;8.590;2023-01-23T08:33:10;1.91;87.29
70246;SHT30;57637;49.272;8.590;2023-01-23T08:35:35;1.91;87.51
70246;SHT30;57637;49.272;8.590;2023-01-23T08:38:01;1.91;87.60
70246;SHT30;57637;49.272;8.590;2023-01-23T08:40:27;1.97;87.59
70246;SHT30;57637;49.272;8.590;2023-01-23T08:42:53;1.96;87.64
70246;SHT30;57637;49.272;8.590;2023-01-23T08:45:18;1.96;87.40
70246;SHT30;57637;49.272;8.590;2023-01-23T08:47:44;2.06;87.49
70246;SHT30;57637;49.272;8.590;2023-01-23T08:50:10;2.07;87.48
70246;SHT30;57637;49.272;8.590;2023-01-23T08:52:36;2.10;87.51
70246;SHT30;57637;49.272;8.590;2023-01-23T08:55:01;2.10;87.60
70246;SHT30;57637;49.272;8.590;2023-01-23T08:57:27;2.11;87.74
70246;SHT30;57637;49.272;8.590;2023-01-23T08:59:52;2.11;87.44
70246;SHT30;57637;49.272;8.590;2023-01-23T09:02:17;2.14;87.33
70246;SHT30;57637;49.272;8.590;2023-01-23T09:04:43;2.11;87.24
70246;SHT30;57637;49.272;8.590;2023-01-23T09:07:08;2.17;87.47
70246;SHT30;57637;49.272;8.590;2023-01-23T09:09:34;2.20;87.51
70246;SHT30;57637;49.272;8.590;2023-01-23T09:11:59;2.20;87.40
70246;SHT30;57637;49.272;8.590;2023-01-23T09:14:24;2.20;87.34
70246;SHT30;57637;49.272;8.590;2023-01-23T09:16:50;2.20;87.06
70246;SHT30;57637;49.272;8.590;2023-01-23T09:19:15;2.22;86.84
70246;SHT30;57637;49.272;8.590;2023-01-23T09:21:40;2.22;86.75
70246;SHT30;57637;49.272;8.590;2023-01-23T09:24:06;2.22;86.43
70246;SHT30;57637;49.272;8.590;2023-01-23T09:26:32;2.24;86.71
70246;SHT30;57637;49.272;8.590;2023-01-23T09:28:58;2.22;85.98
70246;SHT30;57637;49.272;8.590;2023-01-23T09:31:23;2.22;85.03
70246;SHT30;57637;49.272;8.590;2023-01-23T09:33:49;2.22;83.67
70246;SHT30;57637;49.272;8.590;2023-01-23T09:36:14;2.21;83.43
70246;SHT30;57637;49.272;8.590;2023-01-23T09:38:39;2.22;83.22
70246;SHT30;57637;49.272;8.590;2023-01-23T09:41:16;2.18;82.80
70246;SHT30;57637;49.272;8.590;2023-01-23T09:44:31;2.17;82.44
70246;SHT30;57637;49.272;8.590;2023-01-23T09:52:09;2.22;83.30
70246;SHT30;57637;49.272;8.590;2023-01-23T09:54:43;2.27;82.63
70246;SHT30;57637;49.272;8.590;2023-01-23T09:57:21;2.32;83.11
70246;SHT30;57637;49.272;8.590;2023-01-23T10:00:12;2.28;83.02
70246;SHT30;57637;49.272;8.590;2023-01-23T10:02:42;2.31;82.69
70246;SHT30;57637;49.272;8.590;2023-01-23T10:05:12;2.30;82.15
70246;SHT30;57637;49.272;8.590;2023-01-23T10:07:55;2.28;82.53
70246;SHT30;57637;49.272;8.590;2023-01-23T10:16:05;2.22;81.67
70246;SHT30;57637;49.272;8.590;2023-01-23T10:19:15;2.22;81.97
70246;SHT30;57637;49.272;8.590;2023-01-23T10:22:01;2.21;81.43
70246;SHT30;57637;49.272;8.590;2023-01-23T10:27:42;2.31;81.65
70246;SHT30;57637;49.272;8.590;2023-01-23T10:30:30;2.32;81.77
70246;SHT30;57637;49.272;8.590;2023-01-23T10:38:11;2.32;80.80
70246;SHT30;57637;49.272;8.590;2023-01-23T10:40:41;2.37;80.86
70246;SHT30;57637;49.272;8.590;2023-01-23T10:43:25;2.38;80.18
70246;SHT30;57637;49.272;8.590;2023-01-23T10:45:51;2.35;80.09
70246;SHT30;57637;49.272;8.590;2023-01-23T10:50:57;2.45;80.95
70246;SHT30;57637;49.272;8.590;2023-01-23T10:53:24;2.40;80.67
70246;SHT30;57637;49.272;8.590;2023-01-23T10:55:50;2.38;80.41
70246;SHT30;57637;49.272;8.590;2023-01-23T10:58:36;2.42;80.60
70246;SHT30;57637;49.272;8.590;2023-01-23T11:01:05;2.40;80.55
70246;SHT30;57637;49.272;8.590;2023-01-23T11:03:47;2.42;80.98
70246;SHT30;57637;49.272;8.590;2023-01-23T11:06:16;2.46;81.40
70246;SHT30;57637;49.272;8.590;2023-01-23T11:09:02;2.49;81.69
70246;SHT30;57637;49.272;8.590;2023-01-23T11:11:31;2.48;81.36
70246;SHT30;57637;49.272;8.590;2023-01-23T11:14:07;2.45;81.37
70246;SHT30;57637;49.272;8.590;2023-01-23T11:16:37;2.49;81.59
70246;SHT30;57637;49.272;8.590;2023-01-23T11:26:58;2.52;81.38
70246;SHT30;57637;49.272;8.590;2023-01-23T11:29:26;2.53;81.50
70246;SHT30;57637;49.272;8.590;2023-01-23T11:31:58;2.51;81.67
70246;SHT30;57637;49.272;8.590;2023-01-23T11:34:48;2.45;81.69
70246;SHT30;57637;49.272;8.590;2023-01-23T11:37:27;2.55;81.76
70246;SHT30;57637;49.272;8.590;2023-01-23T11:40:18;2.68;82.10
70246;SHT30;57637;49.272;8.590;2023-01-23T11:42:43;2.73;81.54
70246;SHT30;57637;49.272;8.590;2023-01-23T11:45:16;2.82;81.61
70246;SHT30;57637;49.272;8.590;2023-01-23T11:48:13;2.78;81.22
70246;SHT30;57637;49.272;8.590;2023-01-23T11:50:49;2.76;81.17
70246;SHT30;57637;49.272;8.590;2023-01-23T11:56:22;2.75;81.15
70246;SHT30;57637;49.272;8.590;2023-01-23T12:05:23;2.81;81.52
70246;SHT30;57637;49.272;8.590;2023-01-23T12:11:00;2.81;81.27
70246;SHT30;57637;49.272;8.590;2023-01-23T12:13:45;2.81;81.14
70246;SHT30;57637;49.272;8.590;2023-01-23T12:19:12;2.82;81.41
70246;SHT30;57637;49.272;8.590;2023-01-23T12:27:23;2.83;81.05
70246;SHT30;57637;49.272;8.590;2023-01-23T12:35:10;2.91;80.77
70246;SHT30;57637;49.272;8.590;2023-01-23T12:38:07;3.00;81.36
70246;SHT30;57637;49.272;8.590;2023-01-23T12:40:55;3.04;81.29
70246;SHT30;57637;49.272;8.590;2023-01-23T12:46:33;3.03;80.98
70246;SHT30;57637;49.272;8.590;2023-01-23T12:51:49;3.10;81.11
70246;SHT30;57637;49.272;8.590;2023-01-23T12:54:29;3.19;81.17
70246;SHT30;57637;49.272;8.590;2023-01-23T12:57:00;3.14;81.06
70246;SHT30;57637;49.272;8.590;2023-01-23T13:02:39;3.22;80.92
70246;SHT30;57637;49.272;8.590;2023-01-23T13:05:18;3.17;80.67
70246;SHT30;57637;49.272;8.590;2023-01-23T13:08:11;3.23;81.25
70246;SHT30;57637;49.272;8.590;2023-01-23T13:13:57;3.20;80.75
70246;SHT30;57637;49.272;8.590;2023-01-23T13:16:32;3.17;80.86
70246;SHT30;57637;49.272;8.590;2023-01-23T13:18:58;3.19;81.18
70246;SHT30;57637;49.272;8.590;2023-01-23T13:24:44;3.16;80.71
70246;SHT30;57637;49.272;8.590;2023-01-23T13:41:05;3.27;80.87
70246;SHT30;57637;49.272;8.590;2023-01-23T13:43:56;3.26;81.04
70246;SHT30;57637;49.272;8.590;2023-01-23T13:49:21;3.33;80.62
70246;SHT30;57637;49.272;8.590;2023-01-23T13:52:14;3.34;80.72
70246;SHT30;57637;49.272;8.590;2023-01-23T13:55:02;3.31;81.13
70246;SHT30;57637;49.272;8.590;2023-01-23T13:57:56;3.34;81.87
70246;SHT30;57637;49.272;8.590;2023-01-23T14:00:22;3.33;81.97
70246;SHT30;57637;49.272;8.590;2023-01-23T14:06:10;3.34;81.41
70246;SHT30;57637;49.272;8.590;2023-01-23T14:08:49;3.33;82.45
70246;SHT30;57637;49.272;8.590;2023-01-23T14:11:18;3.31;82.96
70246;SHT30;57637;49.272;8.590;2023-01-23T14:13:45;3.27;83.61
70246;SHT30;57637;49.272;8.590;2023-01-23T14:16:42;3.24;83.53
70246;SHT30;57637;49.272;8.590;2023-01-23T14:19:29;3.28;82.16
70246;SHT30;57637;49.272;8.590;2023-01-23T14:21:56;3.40;81.52
70246;SHT30;57637;49.272;8.590;2023-01-23T14:24:25;3.33;81.91
70246;SHT30;57637;49.272;8.590;2023-01-23T14:27:00;3.41;82.17
70246;SHT30;57637;49.272;8.590;2023-01-23T14:29:31;3.48;80.74
70246;SHT30;57637;49.272;8.590;2023-01-23T14:31:56;3.53;80.63
70246;SHT30;57637;49.272;8.590;2023-01-23T14:34:22;3.53;80.21
70246;SHT30;57637;49.272;8.590;2023-01-23T14:36:50;3.60;80.53
70246;SHT30;57637;49.272;8.590;2023-01-23T14:39:25;3.60;80.81
70246;SHT30;57637;49.272;8.590;2023-01-23T14:41:53;3.57;81.31
70246;SHT30;57637;49.272;8.590;2023-01-23T14:44:36;3.50;80.73
70246;SHT30;57637;49.272;8.590;2023-01-23T14:47:08;3.53;80.65
70246;SHT30;57637;49.272;8.590;2023-01-23T14:49:40;3.50;80.98
70246;SHT30;57637;49.272;8.590;2023-01-23T14:52:06;3.56;81.23
70246;SHT30;57637;49.272;8.590;2023-01-23T14:54:47;3.56;81.87
70246;SHT30;57637;49.272;8.590;2023-01-23T14:57:12;3.50;82.08
70246;SHT30;57637;49.272;8.590;2023-01-23T14:59:39;3.37;82.35
70246;SHT30;57637;49.272;8.590;2023-01-23T15:05:05;3.28;82.73
70246;SHT30;57637;49.272;8.590;2023-01-23T15:07:30;3.20;83.19
70246;SHT30;57637;49.272;8.590;2023-01-23T15:09:56;3.14;83.82
70246;SHT30;57637;49.272;8.590;2023-01-23T15:12:21;3.06;84.16
70246;SHT30;57637;49.272;8.590;2023-01-23T15:14:49;3.04;84.58
70246;SHT30;57637;49.272;8.590;2023-01-23T15:17:19;3.02;84.99
70246;SHT30;57637;49.272;8.590;2023-01-23T15:19:48;2.96;85.30
70246;SHT30;57637;49.272;8.590;2023-01-23T15:22:20;2.92;85.58
70246;SHT30;57637;49.272;8.590;2023-01-23T15:24:50;2.81;85.99
70246;SHT30;57637;49.272;8.590;2023-01-23T15:32:54;2.52;86.68
70246;SHT30;57637;49.272;8.590;2023-01-23T15:35:20;2.44;87.06
70246;SHT30;57637;49.272;8.590;2023-01-23T15:37:46;2.37;87.28
70246;SHT30;57637;49.272;8.590;2023-01-23T15:40:14;2.35;87.26
70246;SHT30;57637;49.272;8.590;2023-01-23T15:42:41;2.30;87.18
70246;SHT30;57637;49.272;8.590;2023-01-23T15:45:13;2.30;87.13
70246;SHT30;57637;49.272;8.590;2023-01-23T15:47:38;2.27;86.98
70246;SHT30;57637;49.272;8.590;2023-01-23T15:50:04;2.24;87.13
70246;SHT30;57637;49.272;8.590;2023-01-23T15:52:41;2.20;87.16
70246;SHT30;57637;49.272;8.590;2023-01-23T15:55:10;2.15;87.02
70246;SHT30;57637;49.272;8.590;2023-01-23T15:57:35;2.14;87.06
70246;SHT30;57637;49.272;8.590;2023-01-23T16:00:01;2.09;87.16
70246;SHT30;57637;49.272;8.590;2023-01-23T16:02:37;2.04;87.31
70246;SHT30;57637;49.272;8.590;2023-01-23T16:05:02;2.01;87.43
70246;SHT30;57637;49.272;8.590;2023-01-23T16:09:58;1.99;87.35
70246;SHT30;57637;49.272;8.590;2023-01-23T16:12:26;1.97;87.38
70246;SHT30;57637;49.272;8.590;2023-01-23T16:14:52;1.99;87.36
70246;SHT30;57637;49.272;8.590;2023-01-23T16:17:18;1.97;87.35
70246;SHT30;57637;49.272;8.590;2023-01-23T16:19:44;2.00;87.14
70246;SHT30;57637;49.272;8.590;2023-01-23T16:22:11;1.99;87.32
70246;SHT30;57637;49.272;8.590;2023-01-23T16:24:40;1.96;87.30
70246;SHT30;57637;49.272;8.590;2023-01-23T16:27:09;2.01;87.11
70246;SHT30;57637;49.272;8.590;2023-01-23T16:29:40;2.03;86.90
70246;SHT30;57637;49.272;8.590;2023-01-23T16:32:07;2.04;86.94
70246;SHT30;57637;49.272;8.590;2023-01-23T16:34:33;2.07;86.87
70246;SHT30;57637;49.272;8.590;2023-01-23T16:36:59;2.07;86.78
70246;SHT30;57637;49.272;8.590;2023-01-23T16:39:26;2.09;86.88
70246;SHT30;57637;49.272;8.590;2023-01-23T16:41:55;2.07;86.80
70246;SHT30;57637;49.272;8.590;2023-01-23T16:44:20;2.06;86.65
70246;SHT30;57637;49.272;8.590;2023-01-23T16:46:48;2.03;86.95
70246;SHT30;57637;49.272;8.590;2023-01-23T16:49:14;2.01;86.95
70246;SHT30;57637;49.272;8.590;2023-01-23T16:51:41;2.04;86.95
70246;SHT30;57637;49.272;8.590;2023-01-23T16:54:17;2.01;86.92
70246;SHT30;57637;49.272;8.590;2023-01-23T16:56:44;2.01;86.90
70246;SHT30;57637;49.272;8.590;2023-01-23T16:59:27;2.01;86.85
70246;SHT30;57637;49.272;8.590;2023-01-23T17:01:57;1.97;86.97
70246;SHT30;57637;49.272;8.590;2023-01-23T17:04:23;1.99;87.01
70246;SHT30;57637;49.272;8.590;2023-01-23T17:06:49;1.97;86.92
70246;SHT30;57637;49.272;8.590;2023-01-23T17:09:14;1.96;86.91
70246;SHT30;57637;49.272;8.590;2023-01-23T17:11:42;1.90;87.09
70246;SHT30;57637;49.272;8.590;2023-01-23T17:14:19;1.86;87.25
70246;SHT30;57637;49.272;8.590;2023-01-23T17:16:47;1.77;87.51
70246;SHT30;57637;49.272;8.590;2023-01-23T17:19:25;1.73;87.69
70246;SHT30;57637;49.272;8.590;2023-01-23T17:21:54;1.73;87.60
70246;SHT30;57637;49.272;8.590;2023-01-23T17:24:20;1.64;87.91
70246;SHT30;57637;49.272;8.590;2023-01-23T17:26:45;1.58;87.93
70246;SHT30;57637;49.272;8.590;2023-01-23T17:29:11;1.55;88.29
70246;SHT30;57637;49.272;8.590;2023-01-23T17:31:36;1.71;88.45
70246;SHT30;57637;49.272;8.590;2023-01-23T17:34:03;1.76;88.37
70246;SHT30;57637;49.272;8.590;2023-01-23T17:36:30;1.56;88.05
70246;SHT30;57637;49.272;8.590;2023-01-23T17:38:58;1.42;88.28
70246;SHT30;57637;49.272;8.590;2023-01-23T17:41:24;1.32;88.43
70246;SHT30;57637;49.272;8.590;2023-01-23T17:43:49;1.21;88.59
70246;SHT30;57637;49.272;8.590;2023-01-23T17:46:23;1.18;89.00
70246;SHT30;57637;49.272;8.590;2023-01-23T17:48:51;1.04;89.19
70246;SHT30;57637;49.272;8.590;2023-01-23T17:51:18;0.95;89.34
70246;SHT30;57637;49.272;8.590;2023-01-23T17:53:44;0.88;89.46
70246;SHT30;57637;49.272;8.590;2023-01-23T17:56:11;0.84;89.57